Time;durP1;ratioP1;P1;durP2;ratioP2;P2;SDS_P1;SDS_P2;PMS_P1;PMS_P2;Temp;Humidity;BMP_temperature;BMP_pressure;BME280_temperature;BME280_humidity;BME280_pressure;Samples;Min_cycle;Max_cycle;Signal;HPM_P1;HPM_P2
2020/12/23 00:00:08;;;;;;;1.88;0.90;;;;;;;10.53;100.00;96175.22;1019992;28;20024;-72
2020/12/23 00:00:39;;;;;;;2.08;0.90;;;;;;;10.54;100.00;96188.22;1019991;29;20539;-71
2020/12/23 00:01:21;;;;;;;1.88;0.77;;;;;;;10.53;100.00;96186.56;1027961;28;20344;-71
2020/12/23 00:02:00;;;;;;;1.80;0.90;;;;;;;10.49;100.00;96175.44;1027895;28;20102;-72
2020/12/23 00:02:31;;;;;;;2.15;0.90;;;;;;;10.49;100.00;96183.31;1027353;28;20305;-73
2020/12/23 00:03:02;;;;;;;1.75;0.80;;;;;;;10.49;100.00;96185.06;1027671;28;20059;-71
2020/12/23 00:03:33;;;;;;;1.48;0.90;;;;;;;10.48;100.00;96186.00;1027902;28;20039;-72
2020/12/23 00:04:03;;;;;;;1.13;0.70;;;;;;;10.43;100.00;96181.06;1031916;28;20025;-72
2020/12/23 00:04:34;;;;;;;1.88;0.80;;;;;;;10.43;100.00;96183.69;1019871;29;20552;-72
2020/12/23 00:05:06;;;;;;;2.50;0.90;;;;;;;10.42;100.00;96183.81;1023954;29;20640;-73
2020/12/23 00:05:37;;;;;;;1.83;0.70;;;;;;;10.55;100.00;96179.44;1031966;28;20132;-72
2020/12/23 00:06:08;;;;;;;3.08;1.08;;;;;;;10.56;100.00;96177.66;1019985;29;20260;-71
2020/12/23 00:06:39;;;;;;;2.38;1.00;;;;;;;10.61;100.00;96178.19;1027846;28;20407;-72
2020/12/23 00:07:14;;;;;;;2.97;0.73;;;;;;;10.59;100.00;96169.59;1032080;28;20717;-72
2020/12/23 00:07:46;;;;;;;2.97;0.75;;;;;;;10.66;100.00;96176.94;1027961;28;20250;-72
2020/12/23 00:08:17;;;;;;;1.45;0.70;;;;;;;10.67;100.00;96177.75;1027984;28;20025;-71
2020/12/23 00:08:48;;;;;;;1.95;1.05;;;;;;;10.68;100.00;96175.06;1023892;29;20277;-72
2020/12/23 00:09:19;;;;;;;2.78;1.00;;;;;;;10.65;100.00;96177.03;1023945;29;20082;-71
2020/12/23 00:09:50;;;;;;;1.85;0.70;;;;;;;10.66;100.00;96178.69;1031962;28;20082;-72
2020/12/23 00:10:20;;;;;;;1.65;0.88;;;;;;;10.60;100.00;96176.50;1035959;28;20355;-72
2020/12/23 00:10:51;;;;;;;2.20;0.82;;;;;;;10.63;100.00;96186.78;1023756;29;20427;-72
2020/12/23 00:11:22;;;;;;;1.92;0.80;;;;;;;10.64;100.00;96186.69;1024009;28;20108;-71
2020/12/23 00:11:53;;;;;;;2.80;0.80;;;;;;;10.58;100.00;96175.75;1020076;29;20026;-71
2020/12/23 00:12:24;;;;;;;1.60;0.75;;;;;;;10.62;100.00;96182.47;1019877;29;20027;-72
2020/12/23 00:12:55;;;;;;;2.17;0.90;;;;;;;10.56;100.00;96175.03;1023782;28;20671;-72
2020/12/23 00:13:25;;;;;;;1.85;0.80;;;;;;;10.57;100.00;96182.78;1020002;29;20027;-72
2020/12/23 00:13:56;;;;;;;1.35;0.77;;;;;;;10.54;100.00;96188.22;1023943;29;20027;-72
2020/12/23 00:14:27;;;;;;;2.10;0.80;;;;;;;10.56;100.00;96181.09;1023942;29;20058;-72
2020/12/23 00:14:58;;;;;;;1.63;0.85;;;;;;;10.51;100.00;96183.22;1027862;28;20026;-72
2020/12/23 00:15:28;;;;;;;2.05;0.90;;;;;;;10.47;100.00;96182.56;1023927;29;20031;-72
2020/12/23 00:15:59;;;;;;;2.00;0.90;;;;;;;10.49;100.00;96188.53;1023932;29;20103;-71
2020/12/23 00:16:30;;;;;;;1.10;0.70;;;;;;;10.50;100.00;96189.38;1020062;28;20114;-71
2020/12/23 00:17:01;;;;;;;2.03;0.80;;;;;;;10.50;100.00;96181.50;1019793;29;20027;-72
2020/12/23 00:17:32;;;;;;;1.88;0.77;;;;;;;10.43;100.00;96180.22;1023987;29;20271;-72
2020/12/23 00:18:02;;;;;;;2.22;0.95;;;;;;;10.50;100.00;96171.88;1023896;29;20106;-71
2020/12/23 00:18:33;;;;;;;3.15;0.90;;;;;;;10.50;100.00;96186.75;1023924;28;20530;-72
2020/12/23 00:19:04;;;;;;;2.28;0.85;;;;;;;10.45;100.00;96175.72;1031772;28;20295;-72
2020/12/23 00:19:35;;;;;;;1.65;0.77;;;;;;;10.47;100.00;96185.19;1027939;28;20403;-71
2020/12/23 00:20:05;;;;;;;2.78;0.90;;;;;;;10.48;100.00;96171.13;1027972;28;20019;-71
2020/12/23 00:20:36;;;;;;;1.85;0.90;;;;;;;10.54;100.00;96174.28;1020062;29;20075;-71
2020/12/23 00:21:08;;;;;;;1.73;0.80;;;;;;;10.53;100.00;96172.59;1027779;28;20113;-72
2020/12/23 00:21:39;;;;;;;1.30;0.70;;;;;;;10.52;100.00;96166.53;1019955;28;20032;-71
2020/12/23 00:22:10;;;;;;;2.50;0.80;;;;;;;10.52;100.00;96179.63;1027815;28;20262;-73
2020/12/23 00:22:40;;;;;;;1.23;0.70;;;;;;;10.51;100.00;96177.97;1027828;28;20035;-71
2020/12/23 00:23:11;;;;;;;1.20;0.70;;;;;;;10.52;100.00;96173.56;1023755;28;20031;-72
2020/12/23 00:23:42;;;;;;;2.75;0.80;;;;;;;10.52;100.00;96184.03;1023892;28;20472;-72
2020/12/23 00:24:13;;;;;;;1.67;0.80;;;;;;;10.54;100.00;96174.28;1023891;28;20051;-72
2020/12/23 00:24:43;;;;;;;1.25;0.63;;;;;;;10.53;100.00;96170.84;1031984;28;20041;-71
2020/12/23 00:25:14;;;;;;;1.23;0.70;;;;;;;10.47;100.00;96161.59;1031777;28;20536;-72
2020/12/23 00:25:45;;;;;;;1.58;0.57;;;;;;;10.56;100.00;96175.03;1023886;28;20035;-72
2020/12/23 00:26:15;;;;;;;3.30;0.82;;;;;;;10.61;100.00;96175.56;1027917;28;20026;-72
2020/12/23 00:26:46;;;;;;;0.95;0.60;;;;;;;10.64;100.00;96170.09;1023888;28;20027;-72
2020/12/23 00:27:20;;;;;;;2.22;0.80;;;;;;;10.64;100.00;96178.81;1023838;29;20055;-72
2020/12/23 00:27:51;;;;;;;1.27;0.70;;;;;;;10.63;100.00;96171.88;1019911;29;20089;-72
2020/12/23 00:28:22;;;;;;;3.13;0.90;;;;;;;10.64;100.00;96173.59;1023912;28;20298;-71
2020/12/23 00:28:52;;;;;;;2.72;0.88;;;;;;;10.65;100.00;96171.78;1023968;29;20027;-72
2020/12/23 00:29:23;;;;;;;1.95;0.80;;;;;;;10.65;100.00;96162.13;1027821;28;20027;-72
2020/12/23 00:29:54;;;;;;;2.80;1.13;;;;;;;10.68;100.00;96169.81;1027772;28;20027;-72
2020/12/23 00:30:25;;;;;;;2.40;0.80;;;;;;;10.67;100.00;96170.72;1027877;28;20029;-72
2020/12/23 00:30:56;;;;;;;1.25;0.80;;;;;;;10.65;100.00;96166.56;1019927;29;20026;-72
2020/12/23 00:31:26;;;;;;;1.85;0.80;;;;;;;10.61;100.00;96163.28;1027842;28;20069;-71
2020/12/23 00:31:57;;;;;;;1.55;0.90;;;;;;;10.63;100.00;96161.41;1015891;29;20032;-71
2020/12/23 00:32:28;;;;;;;1.25;0.60;;;;;;;10.68;100.00;96172.44;1027879;28;20026;-72
2020/12/23 00:32:59;;;;;;;1.38;0.70;;;;;;;10.70;100.00;96167.91;1024104;29;20022;-71
2020/12/23 00:33:30;;;;;;;1.10;0.65;;;;;;;10.71;100.00;96176.63;1019809;29;20803;-72
2020/12/23 00:34:02;;;;;;;2.08;0.82;;;;;;;10.75;100.00;96166.75;1027762;28;20102;-71
2020/12/23 00:34:33;;;;;;;2.63;0.82;;;;;;;10.69;100.00;96162.78;1019999;29;20035;-72
2020/12/23 00:35:04;;;;;;;1.90;0.88;;;;;;;10.69;100.00;96163.59;1031858;28;20022;-72
2020/12/23 00:35:35;;;;;;;2.55;0.80;;;;;;;10.68;100.00;96167.19;1023893;28;20027;-72
2020/12/23 00:36:05;;;;;;;1.08;0.60;;;;;;;10.70;100.00;96167.91;1019892;29;20155;-72
2020/12/23 00:36:36;;;;;;;1.45;0.80;;;;;;;10.68;100.00;96168.97;1023880;28;20336;-72
2020/12/23 00:37:07;;;;;;;1.58;0.80;;;;;;;10.63;100.00;96179.75;1023815;29;20023;-72
2020/12/23 00:37:38;;;;;;;1.30;0.70;;;;;;;10.65;100.00;96172.63;1027821;28;20037;-72
2020/12/23 00:38:09;;;;;;;1.52;0.90;;;;;;;10.66;100.00;96171.69;1027753;28;20049;-72
2020/12/23 00:38:40;;;;;;;1.92;0.80;;;;;;;10.70;100.00;96181.03;1023923;29;20027;-72
2020/12/23 00:39:11;;;;;;;2.92;0.70;;;;;;;10.77;100.00;96176.19;1019958;29;20023;-72
2020/12/23 00:39:41;;;;;;;1.55;0.60;;;;;;;10.74;100.00;96170.34;1027757;28;20121;-72
2020/12/23 00:40:12;;;;;;;2.17;0.70;;;;;;;10.73;100.00;96172.09;1019885;29;20015;-72
2020/12/23 00:40:43;;;;;;;1.23;0.55;;;;;;;10.78;100.00;96172.66;1023932;29;20031;-71
2020/12/23 00:41:14;;;;;;;1.13;0.68;;;;;;;10.73;100.00;96166.88;1019906;29;20032;-72
2020/12/23 00:41:45;;;;;;;1.42;0.80;;;;;;;10.82;100.00;96173.28;1019935;29;20020;-71
2020/12/23 00:42:17;;;;;;;1.83;0.70;;;;;;;10.82;100.00;96179.34;1023702;29;20428;-72
2020/12/23 00:42:48;;;;;;;1.23;0.70;;;;;;;10.89;100.00;96177.16;1027904;28;20113;-71
2020/12/23 00:43:19;;;;;;;2.20;0.70;;;;;;;10.92;100.00;96174.31;1036092;28;20684;-72
2020/12/23 00:43:49;;;;;;;1.27;0.65;;;;;;;10.95;100.00;96165.41;1027806;28;20126;-72
2020/12/23 00:44:20;;;;;;;1.48;0.55;;;;;;;10.99;100.00;96174.75;1027717;28;20019;-71
2020/12/23 00:44:51;;;;;;;2.10;1.10;;;;;;;10.97;100.00;96160.91;1027982;28;20018;-72
2020/12/23 00:45:22;;;;;;;1.23;0.63;;;;;;;10.92;100.00;96152.50;1031862;28;20022;-72
2020/12/23 00:45:53;;;;;;;1.30;0.70;;;;;;;10.91;100.00;96167.41;1019708;29;20020;-71
2020/12/23 00:46:24;;;;;;;1.40;0.70;;;;;;;10.88;100.00;96168.44;1023695;29;20016;-72
2020/12/23 00:46:55;;;;;;;0.45;0.40;;;;;;;10.93;100.00;96162.91;1019916;29;20563;-72
2020/12/23 00:47:25;;;;;;;2.72;0.63;;;;;;;10.96;100.00;96169.69;1024011;29;20020;-72
2020/12/23 00:47:56;;;;;;;1.00;0.50;;;;;;;10.95;100.00;96157.56;1023754;29;20020;-72
2020/12/23 00:48:27;;;;;;;0.60;0.50;;;;;;;11.00;100.00;96158.91;1019833;29;20595;-71
2020/12/23 00:48:58;;;;;;;1.25;0.60;;;;;;;11.02;100.00;96162.28;1023779;29;20019;-71
2020/12/23 00:49:29;;;;;;;1.85;0.75;;;;;;;11.03;100.00;96158.69;1027849;28;20121;-71
2020/12/23 00:50:00;;;;;;;2.00;0.95;;;;;;;10.90;100.00;96139.50;1019907;29;20090;-73
2020/12/23 00:50:31;;;;;;;1.13;0.63;;;;;;;11.01;100.00;96159.75;1027747;28;20018;-71
2020/12/23 00:51:07;;;;;;;3.08;0.80;;;;;;;10.99;100.00;96154.59;1027861;28;20506;-72
2020/12/23 00:51:38;;;;;;;2.58;0.90;;;;;;;11.07;100.00;96156.69;1023814;28;20031;-71
2020/12/23 00:52:09;;;;;;;0.90;0.60;;;;;;;11.06;100.00;96155.88;1015355;29;20020;-74
2020/12/23 00:52:39;;;;;;;3.05;0.80;;;;;;;11.11;100.00;96167.81;1019831;29;20016;-72
2020/12/23 00:53:10;;;;;;;0.80;0.50;;;;;;;11.09;100.00;96157.44;1019839;29;20016;-72
2020/12/23 00:53:42;;;;;;;1.30;0.70;;;;;;;11.07;100.00;96160.19;1027816;28;20495;-71
2020/12/23 00:54:12;;;;;;;1.05;0.73;;;;;;;11.05;100.00;96151.56;1023787;29;20020;-71
2020/12/23 00:54:43;;;;;;;1.52;0.70;;;;;;;11.09;100.00;96160.06;1031718;28;20105;-72
2020/12/23 00:55:14;;;;;;;1.48;0.63;;;;;;;11.07;100.00;96161.94;1027721;28;20446;-71
2020/12/23 00:55:45;;;;;;;1.38;0.70;;;;;;;11.03;100.00;96163.94;1027879;28;20146;-72
2020/12/23 00:56:16;;;;;;;1.05;0.50;;;;;;;11.00;100.00;96166.78;1019726;29;20020;-72
2020/12/23 00:56:47;;;;;;;1.05;0.60;;;;;;;11.00;100.00;96158.91;1019799;29;20015;-72
2020/12/23 00:57:17;;;;;;;0.50;0.50;;;;;;;11.04;100.00;96156.94;1027831;28;20101;-72
2020/12/23 00:57:48;;;;;;;1.42;0.63;;;;;;;11.07;100.00;96162.81;1031840;28;20076;-71
2020/12/23 00:58:19;;;;;;;0.70;0.50;;;;;;;11.11;100.00;96166.03;1023656;28;20035;-71
2020/12/23 00:58:50;;;;;;;0.95;0.52;;;;;;;11.13;100.00;96165.94;1027633;28;20023;-72
2020/12/23 00:59:21;;;;;;;0.50;0.50;;;;;;;11.11;100.00;96171.28;1023697;28;20026;-72
2020/12/23 00:59:51;;;;;;;1.35;0.70;;;;;;;11.14;100.00;96159.75;1019969;29;20098;-72
2020/12/23 01:00:22;;;;;;;1.55;0.70;;;;;;;11.11;100.00;96168.66;1027824;28;20006;-72
2020/12/23 01:00:53;;;;;;;1.77;0.50;;;;;;;11.15;100.00;96169.28;1015768;29;20027;-72
2020/12/23 01:01:24;;;;;;;0.85;0.52;;;;;;;11.16;100.00;96170.97;1019878;29;20020;-72
2020/12/23 01:01:57;;;;;;;0.77;0.52;;;;;;;11.18;100.00;96166.44;1023797;28;20019;-71
2020/12/23 01:02:28;;;;;;;1.48;0.50;;;;;;;11.19;100.00;96162.91;1019421;29;20019;-72
2020/12/23 01:02:59;;;;;;;2.92;0.73;;;;;;;11.19;100.00;96162.91;1023373;29;20279;-72
2020/12/23 01:03:29;;;;;;;2.65;0.70;;;;;;;11.20;100.00;96167.19;1031802;28;20037;-71
2020/12/23 01:04:01;;;;;;;0.75;0.50;;;;;;;11.15;100.00;96164.03;1035838;28;20061;-72
2020/12/23 01:04:32;;;;;;;1.00;0.57;;;;;;;11.14;100.00;96159.75;1023800;29;20523;-71
2020/12/23 01:05:03;;;;;;;1.55;0.52;;;;;;;11.16;100.00;96168.34;1023729;29;20114;-72
2020/12/23 01:05:34;;;;;;;1.23;0.60;;;;;;;11.14;100.00;96165.00;1023742;29;20417;-71
2020/12/23 01:06:07;;;;;;;2.03;0.60;;;;;;;11.14;100.00;96168.44;1015899;29;20034;-72
2020/12/23 01:06:37;;;;;;;1.48;0.70;;;;;;;11.13;100.00;96171.16;1019852;29;20429;-71
2020/12/23 01:07:09;;;;;;;1.27;0.63;;;;;;;11.06;100.00;96165.53;1023688;29;20106;-72
2020/12/23 01:07:39;;;;;;;2.42;0.70;;;;;;;11.07;100.00;96162.81;1023948;28;20026;-72
2020/12/23 01:08:10;;;;;;;2.20;0.50;;;;;;;11.11;100.00;96170.44;1023773;29;20427;-72
2020/12/23 01:08:41;;;;;;;1.92;0.60;;;;;;;11.11;100.00;96162.56;1027790;28;20370;-71
2020/12/23 01:09:12;;;;;;;0.90;0.60;;;;;;;11.17;100.00;96176.13;1023640;29;20043;-71
2020/12/23 01:09:43;;;;;;;1.10;0.70;;;;;;;11.15;100.00;96167.50;1023823;29;20464;-72
2020/12/23 01:10:14;;;;;;;0.90;0.60;;;;;;;11.14;100.00;96173.69;1019852;29;20119;-71
2020/12/23 01:10:46;;;;;;;3.38;0.60;;;;;;;11.11;100.00;96168.66;1027823;28;20022;-71
2020/12/23 01:11:16;;;;;;;1.33;0.60;;;;;;;11.07;100.00;96165.44;1031554;28;20450;-72
2020/12/23 01:11:48;;;;;;;1.23;0.70;;;;;;;11.07;100.00;96169.81;1023921;28;20178;-71
2020/12/23 01:12:19;;;;;;;0.77;0.60;;;;;;;11.02;100.00;96170.13;1027850;28;20030;-72
2020/12/23 01:12:50;;;;;;;1.10;0.60;;;;;;;10.91;100.00;96154.31;1031820;28;20022;-72
2020/12/23 01:13:20;;;;;;;1.42;0.63;;;;;;;11.01;100.00;96173.69;1027572;28;20027;-73
2020/12/23 01:13:51;;;;;;;1.17;0.68;;;;;;;11.00;100.00;96172.03;1019828;28;20024;-71
2020/12/23 01:14:22;;;;;;;1.98;0.70;;;;;;;11.01;100.00;96173.69;1019851;29;20076;-72
2020/12/23 01:14:53;;;;;;;0.70;0.60;;;;;;;10.94;100.00;96168.97;1019877;29;20027;-72
2020/12/23 01:15:23;;;;;;;2.20;0.60;;;;;;;10.96;100.00;96169.69;1015748;29;20589;-72
2020/12/23 01:15:54;;;;;;;1.13;0.70;;;;;;;10.94;100.00;96172.44;1019799;29;20024;-72
2020/12/23 01:16:25;;;;;;;1.52;0.60;;;;;;;10.87;100.00;96166.78;1019932;29;20548;-72
2020/12/23 01:16:56;;;;;;;2.50;0.85;;;;;;;10.89;100.00;96174.53;1027781;28;20026;-72
2020/12/23 01:17:26;;;;;;;2.22;0.70;;;;;;;10.86;100.00;96179.97;1019654;29;20433;-72
2020/12/23 01:17:57;;;;;;;0.75;0.60;;;;;;;10.89;100.00;96171.94;1027779;28;20081;-71
2020/12/23 01:18:28;;;;;;;1.52;0.70;;;;;;;10.87;100.00;96176.44;1023914;29;20038;-72
2020/12/23 01:18:59;;;;;;;0.95;0.60;;;;;;;10.86;100.00;96185.22;1019773;29;20126;-72
2020/12/23 01:19:29;;;;;;;1.08;0.60;;;;;;;10.83;100.00;96181.03;1023756;29;20042;-72
2020/12/23 01:20:01;;;;;;;1.58;0.70;;;;;;;10.80;100.00;96189.09;1023841;29;20027;-71
2020/12/23 01:20:32;;;;;;;0.57;0.50;;;;;;;10.74;100.00;96178.22;1031865;28;20053;-71
2020/12/23 01:21:03;;;;;;;0.55;0.50;;;;;;;10.72;100.00;96178.31;1031716;28;20491;-72
2020/12/23 01:21:34;;;;;;;0.90;0.50;;;;;;;10.75;100.00;96190.34;1019666;29;20448;-71
2020/12/23 01:22:04;;;;;;;1.23;0.60;;;;;;;10.73;100.00;96179.97;1023719;29;20078;-71
2020/12/23 01:22:35;;;;;;;1.65;0.60;;;;;;;10.77;100.00;96186.69;1023616;28;20034;-72
2020/12/23 01:23:06;;;;;;;2.50;0.80;;;;;;;10.78;100.00;96184.91;1019847;29;20024;-72
2020/12/23 01:23:37;;;;;;;0.77;0.50;;;;;;;10.75;100.00;96185.94;1015693;29;20035;-72
2020/12/23 01:24:08;;;;;;;0.43;0.43;;;;;;;10.73;100.00;96179.13;1019898;29;20452;-72
2020/12/23 01:24:39;;;;;;;1.25;0.60;;;;;;;10.75;100.00;96195.59;1031770;28;20018;-72
2020/12/23 01:25:10;;;;;;;1.42;0.57;;;;;;;10.73;100.00;96179.13;1023673;29;20393;-72
2020/12/23 01:25:41;;;;;;;1.70;0.80;;;;;;;10.73;100.00;96192.25;1023639;29;20019;-72
2020/12/23 01:26:11;;;;;;;1.67;0.95;;;;;;;10.73;100.00;96192.25;1023758;28;20029;-72
2020/12/23 01:26:42;;;;;;;2.08;0.63;;;;;;;10.69;100.00;96181.13;1015908;29;20020;-72
2020/12/23 01:27:13;;;;;;;0.70;0.50;;;;;;;10.72;100.00;96186.16;1027758;28;20022;-73
2020/12/23 01:27:44;;;;;;;1.90;0.80;;;;;;;10.73;100.00;96185.22;1023727;28;20470;-72
2020/12/23 01:28:15;;;;;;;1.50;0.68;;;;;;;10.72;100.00;96191.41;1023833;29;20429;-71
2020/12/23 01:28:46;;;;;;;1.25;0.63;;;;;;;10.76;100.00;96190.25;1023767;29;20026;-71
2020/12/23 01:29:17;;;;;;;0.63;0.57;;;;;;;10.77;100.00;96188.47;1019924;29;20026;-72
2020/12/23 01:29:48;;;;;;;0.77;0.50;;;;;;;10.77;100.00;96191.91;1019675;29;20035;-72
2020/12/23 01:30:19;;;;;;;2.55;0.93;;;;;;;10.77;100.00;96188.47;1019748;29;20167;-71
2020/12/23 01:30:49;;;;;;;1.13;0.70;;;;;;;10.79;100.00;96190.06;1027950;28;20015;-72
2020/12/23 01:31:20;;;;;;;1.15;0.75;;;;;;;10.73;100.00;96179.97;1019885;29;20416;-71
2020/12/23 01:31:51;;;;;;;2.38;0.70;;;;;;;10.77;100.00;96189.28;1023584;29;20392;-73
2020/12/23 01:32:22;;;;;;;0.60;0.50;;;;;;;10.78;100.00;96182.28;1023617;29;20019;-72
2020/12/23 01:32:53;;;;;;;1.00;0.60;;;;;;;10.78;100.00;96177.06;1019852;29;20448;-71
2020/12/23 01:33:23;;;;;;;1.65;0.80;;;;;;;10.77;100.00;96185.84;1019917;29;20119;-72
2020/12/23 01:33:54;;;;;;;2.63;0.70;;;;;;;10.73;100.00;96176.50;1023719;29;20038;-72
2020/12/23 01:34:25;;;;;;;1.00;0.60;;;;;;;10.80;100.00;96183.84;1027792;28;20067;-72
2020/12/23 01:34:56;;;;;;;0.82;0.50;;;;;;;10.81;100.00;96187.31;1023780;28;20396;-72
2020/12/23 01:35:26;;;;;;;0.93;0.50;;;;;;;10.80;100.00;96183.84;1028010;28;20150;-72
2020/12/23 01:35:57;;;;;;;1.35;0.60;;;;;;;10.75;100.00;96179.88;1035764;28;20026;-72
2020/12/23 01:36:28;;;;;;;2.45;0.70;;;;;;;10.83;100.00;96190.66;1027738;28;20031;-72
2020/12/23 01:36:58;;;;;;;1.40;0.63;;;;;;;10.81;100.00;96184.69;1023779;29;20090;-72
2020/12/23 01:37:31;;;;;;;0.68;0.57;;;;;;;10.83;100.00;96182.81;1023935;29;20035;-72
2020/12/23 01:38:02;;;;;;;2.05;0.60;;;;;;;10.89;100.00;96188.47;1027841;28;20507;-71
2020/12/23 01:38:33;;;;;;;1.30;0.50;;;;;;;10.92;100.00;96191.84;1027610;28;20347;-72
2020/12/23 01:39:04;;;;;;;1.40;0.80;;;;;;;10.92;100.00;96184.81;1023758;29;20030;-71
2020/12/23 01:39:34;;;;;;;1.40;0.55;;;;;;;10.88;100.00;96185.97;1019882;28;20079;-72
2020/12/23 01:40:05;;;;;;;1.50;0.70;;;;;;;10.80;100.00;96177.78;1023736;29;20020;-72
2020/12/23 01:40:36;;;;;;;0.63;0.47;;;;;;;10.79;100.00;96190.06;1015746;29;20020;-72
2020/12/23 01:41:07;;;;;;;0.93;0.50;;;;;;;10.81;100.00;96185.56;1019876;29;20028;-72
2020/12/23 01:41:38;;;;;;;2.05;0.70;;;;;;;10.80;100.00;96183.84;1023786;28;20019;-73
2020/12/23 01:42:09;;;;;;;1.10;0.65;;;;;;;10.83;100.00;96190.66;1023851;29;20028;-73
2020/12/23 01:42:40;;;;;;;1.58;0.60;;;;;;;10.83;100.00;96190.66;1023569;29;20287;-73
2020/12/23 01:43:11;;;;;;;1.52;0.95;;;;;;;10.84;100.00;96192.34;1027729;28;20089;-71
2020/12/23 01:43:58;;;;;;;3.33;0.50;;;;;;;10.80;100.00;96183.03;1031956;28;20053;-72
2020/12/23 01:44:28;;;;;;;2.17;0.60;;;;;;;10.89;100.00;96190.28;1015831;28;20047;-72
2020/12/23 01:45:00;;;;;;;0.95;0.50;;;;;;;10.88;100.00;96185.97;1019723;29;20307;-72
2020/12/23 01:45:30;;;;;;;1.23;0.70;;;;;;;10.91;100.00;96195.41;1024114;29;20066;-71
2020/12/23 01:46:01;;;;;;;1.90;0.70;;;;;;;10.89;100.00;96182.41;1023696;28;20031;-72
2020/12/23 01:46:33;;;;;;;0.63;0.47;;;;;;;10.92;100.00;96192.66;1027789;28;20018;-72
2020/12/23 01:47:05;;;;;;;1.05;0.60;;;;;;;10.84;100.00;96184.50;1027746;28;20065;-72
2020/12/23 01:47:43;;;;;;;0.98;0.57;;;;;;;10.88;100.00;96197.28;1027742;28;20051;-72
2020/12/23 01:48:17;;;;;;;0.73;0.60;;;;;;;10.78;100.00;96191.00;1023740;29;20720;-72
2020/12/23 01:48:49;;;;;;;0.70;0.43;;;;;;;10.84;100.00;96192.34;1019577;29;20038;-72
2020/12/23 01:49:20;;;;;;;0.73;0.50;;;;;;;10.71;100.00;96189.72;1023711;29;20061;-71
2020/12/23 01:49:50;;;;;;;2.28;1.08;;;;;;;10.76;100.00;96187.63;1015990;29;20028;-72
2020/12/23 01:50:21;;;;;;;1.67;0.60;;;;;;;10.76;100.00;96185.00;1019885;29;20058;-72
2020/12/23 01:50:52;;;;;;;0.43;0.43;;;;;;;10.77;100.00;96188.47;1019634;29;20134;-72
2020/12/23 01:51:24;;;;;;;1.50;0.70;;;;;;;10.73;100.00;96193.06;1027888;28;20023;-72
2020/12/23 01:51:55;;;;;;;0.98;0.57;;;;;;;10.70;100.00;96183.66;1023740;29;20034;-72
2020/12/23 01:52:26;;;;;;;1.55;0.70;;;;;;;10.70;100.00;96185.44;1019723;28;20079;-72
2020/12/23 01:52:57;;;;;;;0.82;0.60;;;;;;;10.69;100.00;96181.13;1027608;28;20383;-72
2020/12/23 01:53:28;;;;;;;1.05;0.60;;;;;;;10.65;100.00;96182.28;1027608;28;20056;-71
2020/12/23 01:53:59;;;;;;;0.70;0.55;;;;;;;10.67;100.00;96183.84;1023654;28;20468;-71
2020/12/23 01:54:30;;;;;;;1.73;0.70;;;;;;;10.68;100.00;96184.69;1023752;29;20282;-71
2020/12/23 01:55:01;;;;;;;2.00;0.68;;;;;;;10.67;100.00;96185.63;1027531;28;20026;-72
2020/12/23 01:55:32;;;;;;;1.00;0.60;;;;;;;10.63;100.00;96185.00;1027728;28;20683;-71
2020/12/23 01:56:02;;;;;;;0.68;0.47;;;;;;;10.57;100.00;96176.72;1031731;28;20030;-71
2020/12/23 01:56:33;;;;;;;0.80;0.50;;;;;;;10.60;100.00;96182.56;1023739;29;20638;-72
2020/12/23 01:57:04;;;;;;;1.05;0.60;;;;;;;10.57;100.00;96180.16;1023619;29;20165;-72
2020/12/23 01:57:36;;;;;;;0.98;0.60;;;;;;;10.54;100.00;96190.00;1015947;29;20092;-72
2020/12/23 01:58:07;;;;;;;1.13;0.60;;;;;;;10.50;100.00;96182.34;1023699;29;20027;-71
2020/12/23 01:58:37;;;;;;;1.17;0.70;;;;;;;10.50;100.00;96181.50;1031532;28;20270;-73
2020/12/23 01:59:09;;;;;;;2.25;0.50;;;;;;;10.49;100.00;96177.19;1036621;28;20078;-73
2020/12/23 01:59:43;;;;;;;1.40;1.05;;;;;;;10.45;100.00;96173.94;1027613;29;20011;-72
2020/12/23 02:00:14;;;;;;;0.55;0.50;;;;;;;10.46;100.00;96165.16;1024525;29;20472;-72
2020/12/23 02:00:45;;;;;;;1.20;0.60;;;;;;;10.43;100.00;96167.97;1027669;28;20265;-72
2020/12/23 02:01:19;;;;;;;1.08;0.63;;;;;;;10.41;100.00;96175.09;1019629;29;20023;-71
2020/12/23 02:01:51;;;;;;;1.20;0.70;;;;;;;10.42;100.00;96174.16;1023627;28;20247;-72
2020/12/23 02:02:32;;;;;;;1.92;0.63;;;;;;;10.46;100.00;96180.88;1023313;28;20748;-73
2020/12/23 02:03:04;;;;;;;1.63;0.70;;;;;;;10.44;100.00;96174.91;1019596;29;20307;-72
2020/12/23 02:03:35;;;;;;;1.67;0.57;;;;;;;10.44;100.00;96171.44;1020171;29;20776;-72
2020/12/23 02:04:06;;;;;;;0.57;0.40;;;;;;;10.46;100.00;96169.56;1024526;28;20374;-71
2020/12/23 02:04:37;;;;;;;1.05;0.60;;;;;;;10.43;100.00;96175.81;1028540;28;20026;-72
2020/12/23 02:05:08;;;;;;;2.58;0.60;;;;;;;10.41;100.00;96169.03;1024313;29;20259;-71
2020/12/23 02:05:40;;;;;;;1.55;0.60;;;;;;;10.43;100.00;96169.75;1020299;29;20031;-71
2020/12/23 02:06:11;;;;;;;0.98;0.52;;;;;;;10.42;100.00;96163.69;1020439;29;20294;-71
2020/12/23 02:06:42;;;;;;;2.60;0.73;;;;;;;10.47;100.00;96158.13;1020560;29;20345;-71
2020/12/23 02:07:12;;;;;;;0.47;0.40;;;;;;;10.46;100.00;96161.72;1020556;29;20333;-72
2020/12/23 02:07:43;;;;;;;1.77;0.50;;;;;;;10.46;100.00;96146.81;1024313;28;20118;-71
2020/12/23 02:08:14;;;;;;;1.45;0.60;;;;;;;10.53;100.00;96160.38;1024481;29;20058;-71
2020/12/23 02:08:45;;;;;;;0.95;0.50;;;;;;;10.51;100.00;96162.25;1028412;28;20023;-72
2020/12/23 02:09:18;;;;;;;1.73;0.40;;;;;;;10.47;100.00;96155.50;1020437;29;20035;-72
2020/12/23 02:09:49;;;;;;;0.45;0.45;;;;;;;10.51;100.00;96164.88;1024374;28;20263;-71
2020/12/23 02:10:20;;;;;;;1.15;0.68;;;;;;;10.43;100.00;96154.03;1020433;29;20263;-72
2020/12/23 02:10:51;;;;;;;1.67;0.63;;;;;;;10.51;100.00;96154.38;1020508;29;20799;-71
2020/12/23 02:11:21;;;;;;;1.45;0.70;;;;;;;10.54;100.00;96166.44;1024316;29;20030;-72
2020/12/23 02:11:52;;;;;;;1.23;0.57;;;;;;;10.55;100.00;96158.47;1020438;29;20034;-72
2020/12/23 02:12:23;;;;;;;0.90;0.50;;;;;;;10.54;100.00;96151.53;1024312;28;20049;-72
2020/12/23 02:12:54;;;;;;;0.73;0.50;;;;;;;10.52;100.00;96150.81;1024386;29;21062;-71
2020/12/23 02:13:36;;;;;;;4.13;0.50;;;;;;;10.51;100.00;96146.53;1020385;28;20068;-72
2020/12/23 02:14:07;;;;;;;0.70;0.50;;;;;;;10.56;100.00;96154.06;1020521;29;20028;-71
2020/12/23 02:14:39;;;;;;;0.57;0.50;;;;;;;10.58;100.00;96141.69;1020450;29;20676;-72
2020/12/23 02:15:11;;;;;;;0.88;0.50;;;;;;;10.59;100.00;96149.47;1020399;29;20272;-71
2020/12/23 02:15:43;;;;;;;0.47;0.43;;;;;;;10.59;100.00;96146.00;1020469;29;20848;-72
2020/12/23 02:16:14;;;;;;;1.38;0.60;;;;;;;10.56;100.00;96149.66;1028303;28;20272;-72
2020/12/23 02:16:44;;;;;;;1.25;0.57;;;;;;;10.61;100.00;96155.44;1024479;29;20663;-71
2020/12/23 02:17:16;;;;;;;1.20;0.65;;;;;;;10.58;100.00;96152.19;1016492;29;20020;-71
2020/12/23 02:17:47;;;;;;;1.00;0.60;;;;;;;10.59;100.00;96148.63;1020293;29;20027;-72
2020/12/23 02:18:18;;;;;;;1.30;0.68;;;;;;;10.62;100.00;96153.66;1028300;28;20255;-71
2020/12/23 02:18:49;;;;;;;1.15;0.70;;;;;;;10.62;100.00;96151.03;1032478;28;20277;-71
2020/12/23 02:19:20;;;;;;;0.93;0.52;;;;;;;10.66;100.00;96153.34;1020542;28;20027;-71
2020/12/23 02:19:50;;;;;;;2.10;0.70;;;;;;;10.63;100.00;96148.31;1024211;28;20039;-72
2020/12/23 02:20:21;;;;;;;1.13;0.60;;;;;;;10.66;100.00;96155.97;1036472;28;20068;-72
2020/12/23 02:20:52;;;;;;;0.80;0.50;;;;;;;10.64;100.00;96155.25;1024355;29;20448;-72
2020/12/23 02:21:24;;;;;;;1.05;0.55;;;;;;;10.66;100.00;96162.97;1024510;28;20353;-72
2020/12/23 02:21:55;;;;;;;0.60;0.50;;;;;;;10.66;100.00;96160.34;1024284;29;20035;-72
2020/12/23 02:22:33;;;;;;;1.05;0.60;;;;;;;10.65;100.00;96151.66;1020229;29;20679;-72
2020/12/23 02:23:03;;;;;;;1.20;0.50;;;;;;;10.61;100.00;96142.34;1024595;28;20015;-72
2020/12/23 02:23:34;;;;;;;1.40;0.50;;;;;;;10.63;100.00;96150.09;1028274;28;20266;-72
2020/12/23 02:24:05;;;;;;;0.68;0.50;;;;;;;10.66;100.00;96155.97;1024350;29;20030;-73
2020/12/23 02:24:36;;;;;;;0.68;0.50;;;;;;;10.70;100.00;96152.19;1028227;28;20492;-72
2020/12/23 02:25:07;;;;;;;0.93;0.50;;;;;;;10.73;100.00;96150.31;1020381;28;20026;-71